Time;durP1;ratioP1;P1;durP2;ratioP2;P2;SDS_P1;SDS_P2;PMS_P1;PMS_P2;Temp;Humidity;BMP_temperature;BMP_pressure;BME280_temperature;BME280_humidity;BME280_pressure;Samples;Min_cycle;Max_cycle;Signal;HPM_P1;HPM_P2
2021/05/23 00:01:43;;;;;;;1.60;1.02;;;;;;;14.07;74.01;100855.79;1679513;85;21077;-66
2021/05/23 00:04:09;;;;;;;4.50;1.20;;;;;;;14.06;73.80;100867.53;1680194;85;21146;-67
2021/05/23 00:06:36;;;;;;;1.10;1.00;;;;;;;14.06;73.59;100870.22;1680634;85;21157;-65
2021/05/23 00:09:03;;;;;;;2.47;1.12;;;;;;;14.06;73.50;100866.17;1680484;85;21105;-66
2021/05/23 00:11:29;;;;;;;2.25;1.05;;;;;;;14.05;73.40;100872.02;1680103;85;21078;-66
2021/05/23 00:13:56;;;;;;;2.45;1.20;;;;;;;14.02;73.30;100874.38;1680318;85;21109;-65
2021/05/23 00:16:23;;;;;;;1.87;1.15;;;;;;;13.99;73.20;100882.62;1680544;85;21137;-66
2021/05/23 00:18:53;;;;;;;1.12;1.00;;;;;;;14.00;73.13;100883.02;1673884;84;21161;-66
2021/05/23 00:21:26;;;;;;;2.30;0.90;;;;;;;13.99;73.21;100881.27;1669712;85;21106;-66
2021/05/23 00:23:53;;;;;;;1.60;0.98;;;;;;;13.99;73.02;100877.72;1670192;85;21110;-66
2021/05/23 00:26:19;;;;;;;5.10;1.85;;;;;;;13.97;72.80;100879.12;1673915;85;21149;-67
2021/05/23 00:28:49;;;;;;;4.42;1.15;;;;;;;13.95;72.48;100874.77;1675393;85;21097;-66
2021/05/23 00:31:16;;;;;;;2.72;1.00;;;;;;;13.94;72.35;100872.53;1685994;84;21141;-67
2021/05/23 00:33:43;;;;;;;2.50;1.10;;;;;;;13.92;72.31;100873.09;1687875;84;21533;-66
2021/05/23 00:36:09;;;;;;;3.95;1.10;;;;;;;13.91;72.39;100864.59;1687539;84;21170;-66
2021/05/23 00:38:38;;;;;;;2.58;1.10;;;;;;;13.91;72.52;100867.30;1687554;84;21189;-66
2021/05/23 00:41:06;;;;;;;3.95;1.20;;;;;;;13.91;72.57;100865.95;1687081;84;21514;-66
2021/05/23 00:43:33;;;;;;;3.17;1.12;;;;;;;13.92;72.72;100854.67;1687456;84;21558;-67
2021/05/23 00:48:42;;;;;;;5.78;1.65;;;;;;;13.93;73.17;100857.31;1657332;84;21630;-66
2021/05/23 00:51:09;;;;;;;2.67;1.25;;;;;;;13.95;73.29;100849.17;1630219;86;21109;-66
2021/05/23 00:53:36;;;;;;;1.35;1.25;;;;;;;13.94;73.57;100836.15;1659215;86;21579;-66
2021/05/23 00:56:04;;;;;;;1.98;1.12;;;;;;;13.96;73.87;100834.25;1630853;86;21739;-65
2021/05/23 00:58:32;;;;;;;3.60;1.20;;;;;;;13.97;74.20;100828.41;1658322;84;22122;-66
2021/05/23 01:01:10;;;;;;;1.67;1.20;;;;;;;13.98;74.37;100842.28;1629502;87;21081;-66
2021/05/23 01:03:53;;;;;;;3.55;1.10;;;;;;;13.98;74.40;100847.18;1650104;86;21130;-66
2021/05/23 01:06:20;;;;;;;1.60;1.10;;;;;;;13.99;74.36;100846.23;1678885;84;21177;-66
2021/05/23 01:08:47;;;;;;;1.10;1.00;;;;;;;14.00;74.60;100845.28;1674286;83;21139;-66
2021/05/23 01:11:21;;;;;;;1.37;1.05;;;;;;;14.00;74.54;100850.67;1679758;85;21044;-66
2021/05/23 01:14:02;;;;;;;1.17;0.93;;;;;;;14.01;74.54;100859.65;1680077;84;21111;-65
2021/05/23 01:16:37;;;;;;;2.00;1.20;;;;;;;14.03;74.58;100864.00;1679464;84;21095;-67
2021/05/23 01:19:25;;;;;;;2.72;1.02;;;;;;;14.04;74.77;100857.69;1679764;85;21024;-67
2021/05/23 01:21:54;;;;;;;2.62;1.10;;;;;;;14.06;74.84;100859.44;1679772;85;21113;-67
2021/05/23 01:24:26;;;;;;;1.32;1.05;;;;;;;14.07;74.99;100853.95;1679743;85;21180;-65
2021/05/23 01:26:54;;;;;;;2.62;1.00;;;;;;;14.07;74.96;100858.00;1679360;84;21130;-67
2021/05/23 01:29:20;;;;;;;3.05;1.17;;;;;;;14.07;75.29;100863.39;1687172;83;21141;-66
2021/05/23 01:31:48;;;;;;;3.08;1.17;;;;;;;14.07;75.46;100861.19;1683285;84;21148;-66
2021/05/23 01:34:17;;;;;;;2.02;1.10;;;;;;;14.10;75.75;100859.69;1682896;85;21049;-67
2021/05/23 01:36:44;;;;;;;1.47;1.10;;;;;;;14.11;75.83;100858.73;1683177;85;21137;-67
2021/05/23 01:39:12;;;;;;;1.52;1.15;;;;;;;14.12;75.90;100855.95;1686246;83;21407;-65
2021/05/23 01:41:40;;;;;;;1.87;1.10;;;;;;;14.14;75.96;100858.58;1686932;85;21168;-66
2021/05/23 01:44:08;;;;;;;2.22;1.10;;;;;;;14.15;75.76;100861.22;1686970;85;21101;-67
2021/05/23 01:46:36;;;;;;;1.65;1.10;;;;;;;14.17;75.62;100859.78;1686570;83;21108;-66
2021/05/23 01:49:03;;;;;;;3.65;1.92;;;;;;;14.18;75.68;100857.48;1669674;84;21108;-66
2021/05/23 01:51:30;;;;;;;1.85;1.15;;;;;;;14.18;75.52;100854.78;1647957;87;21092;-66
2021/05/23 01:53:56;;;;;;;2.55;1.00;;;;;;;14.20;75.22;100865.02;1660473;86;21160;-66
2021/05/23 01:56:23;;;;;;;1.57;0.95;;;;;;;14.24;74.77;100863.91;1647573;87;21715;-65
2021/05/23 01:58:50;;;;;;;2.40;1.27;;;;;;;14.27;74.44;100866.48;1664083;85;21128;-65
2021/05/23 02:01:16;;;;;;;2.20;1.20;;;;;;;14.31;74.40;100864.50;1648027;87;21073;-65
2021/05/23 02:03:43;;;;;;;3.92;1.10;;;;;;;14.33;74.33;100859.89;1660362;86;21140;-64
2021/05/23 02:06:10;;;;;;;1.70;1.20;;;;;;;14.37;74.13;100859.28;1647247;87;21581;-64
2021/05/23 02:08:38;;;;;;;2.75;1.20;;;;;;;14.42;73.87;100857.22;1687421;84;21805;-64
2021/05/23 02:11:11;;;;;;;1.20;1.10;;;;;;;14.51;73.65;100862.64;1674293;85;21633;-65
2021/05/23 02:13:36;;;;;;;2.37;1.00;;;;;;;14.56;73.27;100869.56;1674339;84;22381;-64
2021/05/23 02:16:04;;;;;;;1.77;1.22;;;;;;;14.66;73.10;100871.78;1674538;85;21108;-65
2021/05/23 02:18:35;;;;;;;5.83;1.17;;;;;;;14.71;73.25;100876.53;1674884;85;21120;-66
2021/05/23 02:21:02;;;;;;;3.45;1.10;;;;;;;14.76;73.40;100870.42;1675242;84;21136;-66
2021/05/23 02:23:29;;;;;;;1.10;1.00;;;;;;;14.81;73.59;100865.66;1675344;84;22379;-65
2021/05/23 02:25:55;;;;;;;1.50;1.20;;;;;;;14.85;73.73;100866.38;1658029;85;21161;-65
2021/05/23 02:28:22;;;;;;;3.37;1.30;;;;;;;14.90;74.03;100875.11;1641100;87;21132;-65
2021/05/23 02:30:54;;;;;;;3.80;1.20;;;;;;;14.93;74.06;100868.20;1641448;87;21177;-65
2021/05/23 02:33:23;;;;;;;2.35;1.22;;;;;;;15.00;73.98;100876.86;1640972;87;21536;-65
2021/05/23 02:35:52;;;;;;;2.72;1.20;;;;;;;15.04;74.09;100877.09;1643124;85;21536;-65
2021/05/23 02:38:19;;;;;;;6.40;1.30;;;;;;;15.04;74.19;100875.74;1667863;85;21081;-65
2021/05/23 02:40:47;;;;;;;2.33;1.20;;;;;;;15.02;74.38;100873.60;1668707;85;21053;-66
2021/05/23 02:43:15;;;;;;;5.10;1.05;;;;;;;15.02;74.72;100876.30;1668571;85;21025;-65
2021/05/23 02:45:43;;;;;;;2.42;1.40;;;;;;;15.03;74.96;100869.95;1668999;84;21202;-65
2021/05/23 02:48:10;;;;;;;3.15;1.17;;;;;;;15.04;75.18;100873.05;1676616;83;21161;-65
2021/05/23 02:50:40;;;;;;;1.17;1.07;;;;;;;15.02;75.29;100881.70;1680213;85;21619;-65
2021/05/23 02:53:07;;;;;;;2.42;1.37;;;;;;;15.02;75.63;100880.35;1679316;85;21122;-67
2021/05/23 02:55:39;;;;;;;2.75;1.17;;;;;;;15.03;75.99;100890.20;1680125;85;21150;-66
2021/05/23 02:58:07;;;;;;;5.12;1.10;;;;;;;15.01;76.45;100878.61;1646962;87;21125;-66
2021/05/23 03:00:35;;;;;;;2.00;1.20;;;;;;;14.99;76.94;100887.27;1647463;86;21124;-66
2021/05/23 03:03:02;;;;;;;3.90;1.30;;;;;;;14.94;77.34;100882.09;1647683;87;21744;-67
2021/05/23 03:05:29;;;;;;;2.05;1.07;;;;;;;14.94;77.66;100883.94;1664137;85;21534;-65
2021/05/23 03:07:56;;;;;;;2.52;1.52;;;;;;;14.93;77.79;100892.98;1674581;84;21085;-65
2021/05/23 03:10:35;;;;;;;4.75;1.27;;;;;;;14.94;77.93;100890.69;1675041;85;21142;-66
2021/05/23 03:13:03;;;;;;;1.52;1.22;;;;;;;14.96;78.08;100887.42;1675059;85;21112;-67
2021/05/23 03:15:32;;;;;;;2.90;1.30;;;;;;;14.98;78.22;100894.97;1674739;85;21511;-65
2021/05/23 03:17:59;;;;;;;3.35;1.30;;;;;;;14.98;78.37;100893.12;1674800;85;21626;-66
2021/05/23 03:20:26;;;;;;;2.50;1.07;;;;;;;14.99;78.47;100887.27;1667860;85;21093;-66
2021/05/23 03:22:55;;;;;;;3.83;1.10;;;;;;;15.01;78.60;100886.70;1674572;85;21022;-66
2021/05/23 03:25:22;;;;;;;4.83;1.30;;;;;;;15.06;78.76;100887.83;1665725;85;21112;-65
2021/05/23 03:27:50;;;;;;;3.42;1.40;;;;;;;15.09;78.91;100882.27;1647169;85;22021;-66
2021/05/23 03:30:21;;;;;;;2.83;1.57;;;;;;;15.10;79.06;100886.70;1645483;87;21092;-66
2021/05/23 03:32:48;;;;;;;1.70;1.15;;;;;;;15.14;79.17;100890.53;1645333;84;21132;-66
2021/05/23 03:35:16;;;;;;;3.22;1.47;;;;;;;15.17;79.17;100880.02;1656590;85;21527;-66
2021/05/23 03:37:43;;;;;;;4.42;1.20;;;;;;;15.26;79.16;100878.67;1674455;85;21526;-66
2021/05/23 03:40:14;;;;;;;2.27;1.35;;;;;;;15.31;79.08;100879.30;1675128;85;21669;-65
2021/05/23 03:42:43;;;;;;;2.90;1.40;;;;;;;15.37;79.10;100871.34;1675155;85;21133;-66
2021/05/23 03:45:11;;;;;;;2.22;1.42;;;;;;;15.45;79.01;100875.39;1674715;85;21093;-65
2021/05/23 03:47:38;;;;;;;4.33;1.40;;;;;;;15.55;78.93;100878.94;1648953;85;22095;-65
2021/05/23 03:50:09;;;;;;;2.12;1.10;;;;;;;15.66;78.80;100880.59;1639517;87;21179;-67
2021/05/23 03:52:35;;;;;;;1.45;1.30;;;;;;;15.83;78.60;100885.56;1640008;85;21170;-66
2021/05/23 03:55:06;;;;;;;4.42;1.40;;;;;;;15.98;77.96;100873.91;1643245;85;21711;-66
2021/05/23 03:57:33;;;;;;;3.98;1.40;;;;;;;16.17;77.40;100872.88;1670046;85;21146;-66
2021/05/23 03:59:59;;;;;;;2.85;1.30;;;;;;;16.29;76.89;100874.01;1670279;85;21138;-66
2021/05/23 04:02:26;;;;;;;2.25;1.40;;;;;;;16.39;76.35;100871.64;1670472;84;21166;-66
2021/05/23 04:04:56;;;;;;;4.28;1.98;;;;;;;16.52;75.60;100880.81;1648180;84;21179;-66
2021/05/23 04:07:21;;;;;;;2.25;1.40;;;;;;;16.64;75.13;100883.75;1675906;84;21618;-66
2021/05/23 04:09:49;;;;;;;4.95;1.52;;;;;;;16.75;74.94;100882.66;1699489;84;21708;-66
2021/05/23 04:12:18;;;;;;;3.58;1.52;;;;;;;16.82;75.10;100888.09;1699813;84;21089;-66
2021/05/23 04:14:44;;;;;;;4.37;1.30;;;;;;;16.92;75.00;100884.84;1700062;84;21144;-66
2021/05/23 04:17:10;;;;;;;3.25;1.50;;;;;;;17.00;74.62;100890.20;1699778;84;21084;-67
2021/05/23 04:19:37;;;;;;;1.80;1.32;;;;;;;17.08;74.55;100889.74;1699517;84;21124;-66
2021/05/23 04:22:05;;;;;;;2.37;1.50;;;;;;;17.21;74.20;100896.64;1699348;84;21107;-67
2021/05/23 04:24:34;;;;;;;2.60;1.30;;;;;;;17.32;73.74;100905.00;1683702;84;21858;-66
2021/05/23 04:27:01;;;;;;;2.60;1.60;;;;;;;17.46;73.17;100906.86;1698611;84;21745;-66
2021/05/23 04:29:28;;;;;;;3.87;1.40;;;;;;;17.58;72.75;100908.44;1699798;84;21104;-67
2021/05/23 04:31:55;;;;;;;3.25;1.40;;;;;;;17.71;72.56;100913.97;1698525;84;21089;-66
2021/05/23 04:34:22;;;;;;;3.92;1.75;;;;;;;17.85;72.18;100909.03;1694945;84;21595;-67
2021/05/23 04:36:48;;;;;;;3.50;1.40;;;;;;;18.05;71.70;100918.63;1695314;83;21681;-66
2021/05/23 04:39:15;;;;;;;3.12;1.75;;;;;;;18.21;70.46;100914.43;1695204;84;21094;-67
2021/05/23 04:41:42;;;;;;;6.28;1.67;;;;;;;18.35;70.16;100920.81;1695406;84;21062;-66
2021/05/23 04:44:09;;;;;;;3.30;1.62;;;;;;;18.53;69.88;100929.11;1694680;84;21122;-66
2021/05/23 04:46:37;;;;;;;4.20;1.70;;;;;;;18.72;69.41;100930.61;1676831;84;21119;-66
2021/05/23 04:49:03;;;;;;;3.92;1.62;;;;;;;18.83;68.60;100929.39;1682236;84;21168;-66
2021/05/23 04:51:30;;;;;;;7.25;1.70;;;;;;;18.96;68.62;100928.58;1660605;86;21639;-66
2021/05/23 04:53:56;;;;;;;6.28;1.80;;;;;;;19.16;68.07;100933.56;1688635;84;21055;-66
2021/05/23 04:56:23;;;;;;;4.03;1.70;;;;;;;19.28;67.45;100929.13;1694538;83;21119;-66
2021/05/23 04:58:50;;;;;;;4.10;2.02;;;;;;;19.36;67.46;100939.94;1694438;83;21137;-67
2021/05/23 05:01:16;;;;;;;6.28;2.15;;;;;;;19.50;67.32;100951.22;1683694;83;22191;-66
2021/05/23 05:03:43;;;;;;;4.00;1.82;;;;;;;19.59;67.06;100946.00;1664240;86;21316;-67
2021/05/23 05:06:10;;;;;;;3.00;1.90;;;;;;;19.55;67.21;100950.39;1664440;86;21093;-66
2021/05/23 05:08:37;;;;;;;3.15;1.70;;;;;;;19.44;67.73;100951.14;1694391;84;21131;-67
2021/05/23 05:11:04;;;;;;;5.72;1.62;;;;;;;19.33;68.22;100950.06;1699533;84;21107;-66
2021/05/23 05:13:30;;;;;;;3.02;1.50;;;;;;;19.35;67.87;100949.97;1699025;84;21104;-66
2021/05/23 05:15:57;;;;;;;4.10;1.70;;;;;;;19.46;67.30;100947.36;1698896;83;21124;-65
2021/05/23 05:18:23;;;;;;;4.10;1.72;;;;;;;19.65;67.02;100947.43;1698757;84;21108;-66
2021/05/23 05:20:52;;;;;;;4.22;1.72;;;;;;;19.83;66.48;100947.11;1695315;84;21128;-67
2021/05/23 05:23:19;;;;;;;5.20;1.77;;;;;;;19.92;65.65;100938.31;1663962;86;21109;-66
2021/05/23 05:25:45;;;;;;;4.08;1.57;;;;;;;19.92;65.28;100936.95;1679702;84;21116;-67
2021/05/23 05:28:12;;;;;;;2.95;1.57;;;;;;;20.00;65.42;100939.98;1698389;84;21049;-67
2021/05/23 05:30:38;;;;;;;4.20;1.70;;;;;;;20.15;64.53;100941.22;1693468;83;21308;-66
2021/05/23 05:33:05;;;;;;;2.45;1.55;;;;;;;20.27;64.02;100932.65;1683151;84;21599;-67
2021/05/23 05:35:32;;;;;;;1.77;1.60;;;;;;;20.40;62.89;100928.53;1683433;85;21191;-67
2021/05/23 05:37:59;;;;;;;2.40;1.50;;;;;;;20.51;62.68;100927.25;1683140;83;22264;-66
2021/05/23 05:40:25;;;;;;;3.62;1.40;;;;;;;20.67;62.06;100934.26;1683627;84;21174;-66
2021/05/23 05:42:52;;;;;;;3.47;1.50;;;;;;;20.80;61.16;100939.20;1683935;83;21101;-67
2021/05/23 05:45:19;;;;;;;3.15;1.50;;;;;;;20.97;60.49;100943.36;1683766;85;21113;-66
2021/05/23 05:47:47;;;;;;;3.00;1.42;;;;;;;21.15;59.52;100945.20;1636657;87;21622;-66
2021/05/23 05:50:17;;;;;;;5.37;1.67;;;;;;;21.32;58.84;100945.72;1674565;84;21783;-66
2021/05/23 05:52:43;;;;;;;1.98;1.47;;;;;;;21.43;58.37;100943.52;1644143;85;21091;-66
2021/05/23 05:55:13;;;;;;;4.80;1.77;;;;;;;21.54;57.87;100941.31;1668056;85;21108;-65
2021/05/23 05:57:40;;;;;;;1.98;1.50;;;;;;;21.62;56.78;100934.78;1647328;87;21101;-65
2021/05/23 06:00:08;;;;;;;4.00;1.75;;;;;;;21.68;55.52;100932.11;1659876;86;21068;-66
2021/05/23 06:02:41;;;;;;;2.50;1.72;;;;;;;21.73;55.71;100932.59;1647925;87;21137;-66
2021/05/23 06:05:09;;;;;;;4.37;1.57;;;;;;;21.77;56.05;100933.20;1660123;86;21412;-65
2021/05/23 06:07:36;;;;;;;2.12;1.30;;;;;;;21.79;56.34;100940.80;1661793;85;21073;-67
2021/05/23 06:10:04;;;;;;;5.42;1.65;;;;;;;21.83;56.44;100943.66;1692570;84;21263;-65
2021/05/23 06:12:31;;;;;;;5.12;1.70;;;;;;;21.92;56.54;100944.27;1692504;84;21145;-65
2021/05/23 06:14:57;;;;;;;6.45;1.70;;;;;;;22.03;56.02;100945.65;1692356;84;21170;-66
2021/05/23 06:17:24;;;;;;;3.52;1.70;;;;;;;22.11;56.16;100949.61;1692403;84;21113;-65
2021/05/23 06:19:50;;;;;;;3.40;1.70;;;;;;;22.15;56.24;100945.63;1690256;84;21112;-65
2021/05/23 06:22:17;;;;;;;7.00;1.70;;;;;;;22.18;56.30;100951.72;1675580;85;21124;-66
2021/05/23 06:24:43;;;;;;;2.67;1.60;;;;;;;22.21;56.55;100950.58;1656837;86;21103;-65
2021/05/23 06:27:10;;;;;;;3.85;1.60;;;;;;;22.26;56.42;100948.37;1673060;85;21106;-66
2021/05/23 06:29:37;;;;;;;2.60;1.50;;;;;;;22.35;56.29;100956.79;1668394;85;21086;-67
2021/05/23 06:32:06;;;;;;;3.00;1.60;;;;;;;22.48;55.90;100953.95;1668186;84;21136;-66
2021/05/23 06:34:34;;;;;;;4.67;1.90;;;;;;;22.60;55.62;100956.53;1668030;85;21168;-66
2021/05/23 06:37:00;;;;;;;5.90;1.65;;;;;;;22.74;55.41;100962.72;1667631;84;21101;-65
2021/05/23 06:39:27;;;;;;;6.87;1.50;;;;;;;22.85;55.18;100961.30;1667993;84;21607;-64
2021/05/23 06:41:54;;;;;;;2.70;1.60;;;;;;;22.98;55.17;100963.02;1668204;85;21658;-66
2021/05/23 06:44:21;;;;;;;3.08;1.55;;;;;;;23.09;55.20;100953.91;1668351;85;21078;-66
2021/05/23 06:46:49;;;;;;;2.58;1.70;;;;;;;23.27;54.83;100956.95;1668180;85;21697;-66
2021/05/23 06:49:16;;;;;;;2.20;1.72;;;;;;;23.45;53.71;100961.36;1665698;84;21167;-68
2021/05/23 06:51:43;;;;;;;4.65;2.10;;;;;;;23.66;53.56;100955.87;1638744;85;21716;-66
2021/05/23 06:54:10;;;;;;;2.67;1.60;;;;;;;23.94;52.81;100965.73;1649645;86;21125;-66
2021/05/23 06:56:37;;;;;;;3.40;2.00;;;;;;;24.13;52.61;100957.29;1649775;86;21121;-65
2021/05/23 06:59:04;;;;;;;2.83;1.50;;;;;;;24.23;52.17;100958.21;1649866;86;21141;-66
2021/05/23 07:01:31;;;;;;;6.12;1.52;;;;;;;24.32;51.35;100960.11;1649949;86;21129;-66
2021/05/23 07:03:59;;;;;;;1.98;1.70;;;;;;;24.39;51.13;100948.58;1683453;85;21634;-66
2021/05/23 07:06:26;;;;;;;3.55;1.70;;;;;;;24.40;51.41;100951.69;1683285;83;21584;-65
2021/05/23 07:08:54;;;;;;;2.33;1.40;;;;;;;24.49;51.57;100952.23;1715008;82;21126;-65
2021/05/23 07:11:21;;;;;;;2.87;1.70;;;;;;;24.57;51.30;100941.94;1715675;82;21522;-66
2021/05/23 07:13:47;;;;;;;5.00;1.60;;;;;;;24.59;51.39;100939.92;1716727;82;21122;-65
2021/05/23 07:16:16;;;;;;;4.85;2.22;;;;;;;24.66;51.62;100940.23;1716463;82;21716;-66
2021/05/23 07:18:44;;;;;;;4.35;2.00;;;;;;;24.71;51.33;100937.92;1715615;83;21142;-66
2021/05/23 07:21:11;;;;;;;4.47;1.70;;;;;;;24.64;51.12;100929.88;1690081;83;21085;-66
2021/05/23 07:23:37;;;;;;;3.37;1.80;;;;;;;24.59;49.93;100936.66;1709754;83;21093;-66
2021/05/23 07:26:04;;;;;;;1.95;1.62;;;;;;;24.56;49.50;100931.98;1689143;83;21154;-65
2021/05/23 07:28:33;;;;;;;4.60;1.65;;;;;;;24.55;48.50;100928.89;1674250;85;21124;-65
2021/05/23 07:31:01;;;;;;;4.03;1.85;;;;;;;24.46;49.00;100936.08;1674874;84;21130;-66
2021/05/23 07:33:28;;;;;;;5.08;1.50;;;;;;;24.49;50.47;100937.65;1674297;85;22177;-66
2021/05/23 07:35:55;;;;;;;2.08;1.80;;;;;;;24.46;50.89;100942.41;1674301;84;21117;-65
2021/05/23 07:38:21;;;;;;;2.40;1.60;;;;;;;24.41;51.28;100944.70;1674541;85;21653;-66
2021/05/23 07:40:50;;;;;;;3.35;1.55;;;;;;;24.30;52.07;100938.83;1674872;84;21124;-67
2021/05/23 07:43:17;;;;;;;4.65;1.70;;;;;;;24.26;52.59;100946.97;1674414;85;21090;-66
2021/05/23 07:45:44;;;;;;;3.40;1.55;;;;;;;24.25;52.86;100947.09;1674804;84;21129;-67
2021/05/23 07:48:10;;;;;;;8.68;1.70;;;;;;;24.29;52.53;100957.65;1641727;86;21677;-66
2021/05/23 07:50:37;;;;;;;2.17;1.60;;;;;;;24.39;51.25;100970.50;1661505;83;21088;-65
2021/05/23 07:53:03;;;;;;;3.85;1.87;;;;;;;24.49;50.31;100950.86;1672499;85;21617;-66
2021/05/23 07:55:30;;;;;;;4.00;1.72;;;;;;;24.59;49.25;100950.37;1672679;85;22228;-66
2021/05/23 07:57:57;;;;;;;4.47;1.57;;;;;;;24.63;48.91;100948.71;1667504;85;22287;-67
2021/05/23 08:00:23;;;;;;;2.42;1.60;;;;;;;24.68;49.26;100948.66;1683184;85;21594;-66
2021/05/23 08:02:50;;;;;;;2.80;1.72;;;;;;;24.71;49.54;100953.00;1683380;84;21164;-67
2021/05/23 08:05:17;;;;;;;5.12;1.70;;;;;;;24.73;49.37;100940.02;1683872;85;21546;-66
2021/05/23 08:07:45;;;;;;;6.10;1.50;;;;;;;24.69;49.47;100941.31;1684916;83;21509;-66
2021/05/23 08:10:13;;;;;;;4.03;2.00;;;;;;;24.72;49.63;100947.88;1683895;84;21498;-66
2021/05/23 08:12:40;;;;;;;4.47;1.60;;;;;;;24.80;49.18;100952.17;1683420;85;21724;-66
2021/05/23 08:15:07;;;;;;;2.55;1.70;;;;;;;24.88;47.92;100950.97;1683235;85;21549;-65
2021/05/23 08:17:34;;;;;;;5.05;1.70;;;;;;;24.98;47.31;100940.50;1683163;84;21837;-66
2021/05/23 08:20:00;;;;;;;2.12;1.57;;;;;;;25.03;46.54;100932.70;1683206;84;22147;-66
2021/05/23 08:22:27;;;;;;;4.37;1.77;;;;;;;25.04;46.47;100934.43;1682896;83;21579;-66
2021/05/23 08:24:53;;;;;;;3.50;1.77;;;;;;;24.94;45.94;100933.58;1681947;84;21883;-66
2021/05/23 08:27:20;;;;;;;3.17;1.60;;;;;;;24.93;45.78;100936.80;1674162;84;21145;-65
2021/05/23 08:29:46;;;;;;;5.70;1.85;;;;;;;24.97;45.63;100934.66;1674131;85;21421;-66
2021/05/23 08:32:14;;;;;;;1.92;1.60;;;;;;;25.07;44.84;100939.63;1676404;83;21166;-65
2021/05/23 08:34:40;;;;;;;2.52;1.90;;;;;;;25.11;44.12;100942.46;1658977;85;21697;-67
2021/05/23 08:37:07;;;;;;;4.75;1.80;;;;;;;25.18;44.76;100944.98;1681844;83;21799;-66
2021/05/23 08:39:33;;;;;;;3.47;1.50;;;;;;;25.26;45.50;100950.23;1682301;83;21575;-65
2021/05/23 08:42:00;;;;;;;5.87;1.75;;;;;;;25.26;45.58;100954.34;1683186;85;21013;-66
2021/05/23 08:44:27;;;;;;;4.33;1.60;;;;;;;25.25;45.08;100956.73;1682756;85;21382;-65
2021/05/23 08:46:53;;;;;;;3.58;1.80;;;;;;;25.28;45.07;100957.31;1683821;85;21075;-66
2021/05/23 08:49:22;;;;;;;2.52;1.67;;;;;;;25.32;45.46;100953.79;1684149;83;20999;-66
2021/05/23 08:51:49;;;;;;;5.47;1.75;;;;;;;25.32;45.87;100948.30;1678243;83;21096;-67
2021/05/23 08:54:16;;;;;;;2.65;2.00;;;;;;;25.41;46.08;100950.16;1676785;85;21109;-66
2021/05/23 08:56:44;;;;;;;3.65;1.82;;;;;;;25.50;45.71;100953.05;1661817;86;21417;-66
2021/05/23 08:59:11;;;;;;;6.15;2.00;;;;;;;25.50;45.72;100950.31;1652840;85;21111;-66
2021/05/23 09:01:38;;;;;;;6.05;1.98;;;;;;;25.52;45.91;100951.02;1652985;86;21584;-65
2021/05/23 09:04:07;;;;;;;4.17;2.02;;;;;;;25.48;45.81;100953.71;1653140;84;21043;-65
2021/05/23 09:06:35;;;;;;;3.33;1.95;;;;;;;25.39;46.65;100949.44;1629587;86;21153;-67
2021/05/23 09:09:09;;;;;;;4.05;1.62;;;;;;;25.36;46.85;100952.48;1654925;86;21610;-65
2021/05/23 09:11:42;;;;;;;3.95;2.10;;;;;;;25.34;47.05;100947.65;1649904;86;21520;-65
2021/05/23 09:14:08;;;;;;;2.65;1.90;;;;;;;25.35;47.23;100945.27;1694490;82;21567;-66
2021/05/23 09:16:38;;;;;;;4.15;2.00;;;;;;;25.40;46.81;100945.68;1674492;84;21650;-66
2021/05/23 09:19:06;;;;;;;4.20;1.90;;;;;;;25.51;46.45;100943.80;1674418;85;21120;-65
2021/05/23 09:21:36;;;;;;;2.98;2.15;;;;;;;25.49;47.16;100937.60;1674937;84;21038;-65
2021/05/23 09:24:07;;;;;;;3.98;2.02;;;;;;;25.48;47.28;100946.36;1674187;84;21643;-65
2021/05/23 09:26:46;;;;;;;4.05;2.27;;;;;;;25.52;46.68;100938.67;1674113;84;21428;-66
2021/05/23 09:29:20;;;;;;;6.05;2.00;;;;;;;25.53;44.50;100937.17;1674708;85;21713;-67
2021/05/23 09:32:02;;;;;;;3.85;2.02;;;;;;;25.51;43.21;100941.06;1674597;84;21116;-67
2021/05/23 09:34:27;;;;;;;6.28;2.30;;;;;;;25.52;43.08;100940.05;1675034;84;21685;-66
2021/05/23 09:36:53;;;;;;;6.47;2.20;;;;;;;25.61;44.29;100940.55;1701701;83;21041;-65
2021/05/23 09:39:20;;;;;;;5.22;2.37;;;;;;;25.72;45.49;100941.73;1708658;82;21654;-65
2021/05/23 09:41:48;;;;;;;4.03;2.12;;;;;;;25.72;43.75;100947.22;1709029;82;21109;-65
2021/05/23 09:44:22;;;;;;;3.58;1.87;;;;;;;25.68;43.28;100951.28;1702078;83;21494;-66
2021/05/23 09:46:55;;;;;;;4.47;1.82;;;;;;;25.60;42.88;100949.80;1666136;83;21044;-66
2021/05/23 09:49:23;;;;;;;4.45;1.77;;;;;;;25.53;43.25;100946.78;1628905;86;21140;-67
2021/05/23 09:51:57;;;;;;;8.25;2.05;;;;;;;25.56;47.05;100948.38;1651898;85;21135;-66
2021/05/23 09:54:27;;;;;;;3.80;2.00;;;;;;;25.56;49.16;100953.34;1627460;88;21139;-67
2021/05/23 09:56:54;;;;;;;3.95;2.25;;;;;;;25.53;49.16;100951.38;1655289;84;21122;-66
2021/05/23 09:59:29;;;;;;;7.00;2.25;;;;;;;25.53;48.87;100945.89;1627117;86;21194;-67
2021/05/23 10:02:10;;;;;;;4.33;2.33;;;;;;;25.57;49.00;100943.23;1656367;86;21641;-65
2021/05/23 10:04:37;;;;;;;3.00;2.10;;;;;;;25.67;48.90;100948.19;1628612;85;22025;-65
2021/05/23 10:07:08;;;;;;;3.87;2.00;;;;;;;25.68;49.56;100949.92;1641932;86;21145;-65
2021/05/23 10:09:36;;;;;;;2.77;1.70;;;;;;;25.63;49.75;100954.11;1688841;83;21528;-66
2021/05/23 10:12:03;;;;;;;3.77;2.05;;;;;;;25.62;49.80;100956.50;1716405;82;21118;-60
2021/05/23 10:14:30;;;;;;;2.87;1.95;;;;;;;25.60;49.76;100951.17;1689944;84;21587;-62
2021/05/23 10:16:57;;;;;;;5.22;2.20;;;;;;;25.59;50.27;100952.19;1690743;83;21677;-62
2021/05/23 10:19:26;;;;;;;4.05;2.10;;;;;;;25.58;50.81;100951.31;1690526;83;21105;-62
2021/05/23 10:21:53;;;;;;;5.00;1.80;;;;;;;25.55;50.89;100954.88;1691561;84;22199;-62
2021/05/23 10:24:34;;;;;;;7.92;2.20;;;;;;;25.48;50.86;100948.22;1690744;83;21094;-62
2021/05/23 10:27:05;;;;;;;3.02;2.20;;;;;;;25.38;50.66;100947.70;1690493;84;21161;-62
2021/05/23 10:29:35;;;;;;;5.28;2.15;;;;;;;25.20;51.07;100948.08;1690744;84;21672;-64
2021/05/23 10:32:12;;;;;;;5.05;2.33;;;;;;;25.14;50.69;100951.77;1688576;84;21103;-63
2021/05/23 10:34:43;;;;;;;7.60;2.35;;;;;;;25.13;50.46;100944.55;1690224;84;21146;-62
2021/05/23 10:37:10;;;;;;;4.70;2.45;;;;;;;25.11;50.79;100954.80;1691515;83;21637;-62
2021/05/23 10:39:41;;;;;;;3.60;2.10;;;;;;;25.09;50.17;100951.34;1691166;84;21849;-63
2021/05/23 10:42:12;;;;;;;8.48;2.12;;;;;;;25.04;50.57;100956.38;1691046;83;21129;-62
2021/05/23 10:44:44;;;;;;;5.58;2.12;;;;;;;24.90;52.55;100965.89;1672783;83;21110;-63
2021/05/23 10:47:23;;;;;;;6.35;2.30;;;;;;;24.70;53.07;100964.98;1664285;84;21153;-62
2021/05/23 10:50:00;;;;;;;5.05;2.02;;;;;;;24.54;52.89;100969.11;1688357;83;21164;-61
2021/05/23 10:52:30;;;;;;;6.25;2.33;;;;;;;24.47;53.23;100981.66;1685999;83;21677;-62
2021/05/23 10:55:06;;;;;;;8.58;2.30;;;;;;;24.41;53.08;100979.45;1658196;85;21039;-62
2021/05/23 10:57:51;;;;;;;3.15;2.08;;;;;;;24.36;54.63;100969.41;1657482;85;21617;-62
2021/05/23 11:00:35;;;;;;;3.67;2.00;;;;;;;24.26;55.22;100970.26;1657130;85;21155;-61
2021/05/23 11:03:14;;;;;;;3.08;2.02;;;;;;;24.22;54.84;100975.66;1656783;85;21175;-62
2021/05/23 11:05:42;;;;;;;4.42;2.25;;;;;;;24.17;54.39;100970.58;1628556;87;21606;-63
2021/05/23 11:08:13;;;;;;;5.80;1.90;;;;;;;24.12;53.88;100967.88;1655382;85;20985;-63
2021/05/23 11:10:50;;;;;;;2.35;1.90;;;;;;;24.09;54.17;100975.00;1649759;85;21113;-63
2021/05/23 11:13:34;;;;;;;3.27;1.95;;;;;;;24.07;54.64;100982.49;1683303;83;21931;-62
2021/05/23 11:16:17;;;;;;;4.00;1.98;;;;;;;24.00;55.07;100978.91;1629124;86;21153;-63
2021/05/23 11:18:44;;;;;;;3.02;2.00;;;;;;;23.91;55.80;100981.08;1656974;86;21043;-62
2021/05/23 11:21:14;;;;;;;5.15;2.17;;;;;;;23.77;57.04;100984.19;1628590;87;21614;-61
2021/05/23 11:23:51;;;;;;;3.87;1.98;;;;;;;23.67;57.85;100984.12;1657452;84;20998;-62
2021/05/23 11:26:19;;;;;;;4.70;1.90;;;;;;;23.55;57.71;100981.43;1656632;86;21111;-63
2021/05/23 11:28:49;;;;;;;4.03;2.25;;;;;;;23.44;57.95;100984.25;1648880;86;21118;-63
2021/05/23 11:31:27;;;;;;;2.33;1.90;;;;;;;23.36;58.54;100976.70;1676842;85;21574;-64
2021/05/23 11:33:55;;;;;;;2.95;1.80;;;;;;;23.31;57.98;100978.94;1628487;86;21909;-62